sensor_id;sensor_type;location;lat;lon;timestamp;P1;durP1;ratioP1;P2;durP2;ratioP2
70253;SDS011;57649;42.968;1.608;2023-12-04T00:00:57;24.35;;;15.13;;
70253;SDS011;57649;42.968;1.608;2023-12-04T00:03:23;18.50;;;10.77;;
70253;SDS011;57649;42.968;1.608;2023-12-04T00:05:48;17.63;;;10.52;;
70253;SDS011;57649;42.968;1.608;2023-12-04T00:08:13;21.55;;;13.00;;
70253;SDS011;57649;42.968;1.608;2023-12-04T00:10:39;18.15;;;10.65;;
70253;SDS011;57649;42.968;1.608;2023-12-04T00:13:05;16.50;;;10.93;;
70253;SDS011;57649;42.968;1.608;2023-12-04T00:15:30;14.90;;;9.63;;
70253;SDS011;57649;42.968;1.608;2023-12-04T00:17:55;18.85;;;11.50;;
70253;SDS011;57649;42.968;1.608;2023-12-04T00:20:21;18.67;;;11.90;;
70253;SDS011;57649;42.968;1.608;2023-12-04T00:22:46;22.17;;;12.93;;
70253;SDS011;57649;42.968;1.608;2023-12-04T00:25:11;14.77;;;9.55;;
70253;SDS011;57649;42.968;1.608;2023-12-04T00:27:37;20.33;;;10.80;;
70253;SDS011;57649;42.968;1.608;2023-12-04T00:30:03;12.73;;;8.13;;
70253;SDS011;57649;42.968;1.608;2023-12-04T00:32:29;15.73;;;9.02;;
70253;SDS011;57649;42.968;1.608;2023-12-04T00:34:55;13.48;;;8.93;;
70253;SDS011;57649;42.968;1.608;2023-12-04T00:37:21;26.98;;;16.17;;
70253;SDS011;57649;42.968;1.608;2023-12-04T00:39:56;23.63;;;12.25;;
70253;SDS011;57649;42.968;1.608;2023-12-04T00:42:22;17.92;;;10.77;;
70253;SDS011;57649;42.968;1.608;2023-12-04T00:44:49;21.80;;;10.88;;
70253;SDS011;57649;42.968;1.608;2023-12-04T00:47:20;33.88;;;17.95;;
70253;SDS011;57649;42.968;1.608;2023-12-04T00:49:54;25.83;;;13.80;;
70253;SDS011;57649;42.968;1.608;2023-12-04T00:52:37;42.03;;;17.88;;
70253;SDS011;57649;42.968;1.608;2023-12-04T00:55:16;29.05;;;14.05;;
70253;SDS011;57649;42.968;1.608;2023-12-04T00:57:45;47.22;;;20.85;;
70253;SDS011;57649;42.968;1.608;2023-12-04T01:00:11;13.88;;;7.93;;
70253;SDS011;57649;42.968;1.608;2023-12-04T01:02:40;17.70;;;11.65;;
70253;SDS011;57649;42.968;1.608;2023-12-04T01:05:14;14.38;;;9.35;;
70253;SDS011;57649;42.968;1.608;2023-12-04T01:07:54;11.57;;;6.65;;
70253;SDS011;57649;42.968;1.608;2023-12-04T01:10:19;10.20;;;6.47;;
70253;SDS011;57649;42.968;1.608;2023-12-04T01:12:45;13.75;;;7.20;;
70253;SDS011;57649;42.968;1.608;2023-12-04T01:15:13;12.63;;;8.25;;
70253;SDS011;57649;42.968;1.608;2023-12-04T01:17:39;11.77;;;8.07;;
70253;SDS011;57649;42.968;1.608;2023-12-04T01:20:07;16.02;;;8.63;;
70253;SDS011;57649;42.968;1.608;2023-12-04T01:22:36;12.48;;;7.88;;
70253;SDS011;57649;42.968;1.608;2023-12-04T01:25:04;26.98;;;18.23;;
70253;SDS011;57649;42.968;1.608;2023-12-04T01:27:39;14.02;;;9.20;;
70253;SDS011;57649;42.968;1.608;2023-12-04T01:30:05;14.80;;;10.35;;
70253;SDS011;57649;42.968;1.608;2023-12-04T01:32:33;16.23;;;10.20;;
70253;SDS011;57649;42.968;1.608;2023-12-04T01:34:59;13.77;;;7.40;;
70253;SDS011;57649;42.968;1.608;2023-12-04T01:37:24;13.93;;;6.85;;
70253;SDS011;57649;42.968;1.608;2023-12-04T01:39:50;14.88;;;7.90;;
70253;SDS011;57649;42.968;1.608;2023-12-04T01:42:15;10.98;;;7.28;;
70253;SDS011;57649;42.968;1.608;2023-12-04T01:44:40;14.30;;;8.30;;
70253;SDS011;57649;42.968;1.608;2023-12-04T01:47:06;14.10;;;9.00;;
70253;SDS011;57649;42.968;1.608;2023-12-04T01:49:32;12.77;;;7.97;;
70253;SDS011;57649;42.968;1.608;2023-12-04T01:51:58;14.05;;;7.95;;
70253;SDS011;57649;42.968;1.608;2023-12-04T01:54:23;12.00;;;7.63;;
70253;SDS011;57649;42.968;1.608;2023-12-04T01:56:49;15.32;;;7.85;;
70253;SDS011;57649;42.968;1.608;2023-12-04T01:59:15;11.75;;;7.50;;
70253;SDS011;57649;42.968;1.608;2023-12-04T02:01:40;15.35;;;8.30;;
70253;SDS011;57649;42.968;1.608;2023-12-04T02:04:09;11.95;;;7.72;;
70253;SDS011;57649;42.968;1.608;2023-12-04T02:07:26;10.77;;;7.35;;
70253;SDS011;57649;42.968;1.608;2023-12-04T02:10:22;12.82;;;7.00;;
70253;SDS011;57649;42.968;1.608;2023-12-04T02:17:43;13.02;;;7.80;;
70253;SDS011;57649;42.968;1.608;2023-12-04T02:20:12;12.68;;;7.78;;
70253;SDS011;57649;42.968;1.608;2023-12-04T02:22:46;12.38;;;7.50;;
70253;SDS011;57649;42.968;1.608;2023-12-04T02:25:11;16.08;;;7.68;;
70253;SDS011;57649;42.968;1.608;2023-12-04T02:27:44;14.43;;;7.53;;
70253;SDS011;57649;42.968;1.608;2023-12-04T02:30:14;11.07;;;6.95;;
70253;SDS011;57649;42.968;1.608;2023-12-04T02:32:45;11.47;;;7.67;;
70253;SDS011;57649;42.968;1.608;2023-12-04T02:35:13;13.05;;;7.25;;
70253;SDS011;57649;42.968;1.608;2023-12-04T02:37:44;12.52;;;7.40;;
70253;SDS011;57649;42.968;1.608;2023-12-04T02:40:13;12.60;;;7.50;;
70253;SDS011;57649;42.968;1.608;2023-12-04T02:45:44;11.95;;;7.10;;
70253;SDS011;57649;42.968;1.608;2023-12-04T02:48:15;10.90;;;7.43;;
70253;SDS011;57649;42.968;1.608;2023-12-04T02:50:51;12.25;;;7.65;;
70253;SDS011;57649;42.968;1.608;2023-12-04T02:56:30;14.60;;;7.68;;
70253;SDS011;57649;42.968;1.608;2023-12-04T02:58:56;12.13;;;7.47;;
70253;SDS011;57649;42.968;1.608;2023-12-04T03:01:27;11.25;;;7.20;;
70253;SDS011;57649;42.968;1.608;2023-12-04T03:03:55;12.10;;;7.97;;
70253;SDS011;57649;42.968;1.608;2023-12-04T03:06:26;10.90;;;6.63;;
70253;SDS011;57649;42.968;1.608;2023-12-04T03:08:52;11.85;;;6.63;;
70253;SDS011;57649;42.968;1.608;2023-12-04T03:11:33;11.48;;;6.93;;
70253;SDS011;57649;42.968;1.608;2023-12-04T03:14:35;12.60;;;6.53;;
70253;SDS011;57649;42.968;1.608;2023-12-04T03:20:51;12.90;;;7.65;;
70253;SDS011;57649;42.968;1.608;2023-12-04T03:23:19;12.52;;;7.22;;
70253;SDS011;57649;42.968;1.608;2023-12-04T03:25:47;10.38;;;7.75;;
70253;SDS011;57649;42.968;1.608;2023-12-04T03:28:12;12.57;;;7.57;;
70253;SDS011;57649;42.968;1.608;2023-12-04T03:30:49;12.30;;;7.47;;
70253;SDS011;57649;42.968;1.608;2023-12-04T03:33:24;12.77;;;7.68;;
70253;SDS011;57649;42.968;1.608;2023-12-04T03:35:49;11.20;;;7.50;;
70253;SDS011;57649;42.968;1.608;2023-12-04T03:38:18;13.50;;;8.10;;
70253;SDS011;57649;42.968;1.608;2023-12-04T03:41:13;13.18;;;7.15;;
70253;SDS011;57649;42.968;1.608;2023-12-04T03:43:39;12.05;;;7.20;;
70253;SDS011;57649;42.968;1.608;2023-12-04T03:46:05;13.25;;;7.05;;
70253;SDS011;57649;42.968;1.608;2023-12-04T03:48:30;11.70;;;7.00;;
70253;SDS011;57649;42.968;1.608;2023-12-04T03:50:56;14.15;;;7.15;;
70253;SDS011;57649;42.968;1.608;2023-12-04T03:53:21;11.77;;;7.55;;
70253;SDS011;57649;42.968;1.608;2023-12-04T03:55:46;12.27;;;8.05;;
70253;SDS011;57649;42.968;1.608;2023-12-04T03:58:12;12.18;;;7.35;;
70253;SDS011;57649;42.968;1.608;2023-12-04T04:00:37;19.58;;;11.35;;
70253;SDS011;57649;42.968;1.608;2023-12-04T04:03:06;20.88;;;13.10;;
70253;SDS011;57649;42.968;1.608;2023-12-04T04:05:34;41.65;;;22.13;;
70253;SDS011;57649;42.968;1.608;2023-12-04T04:08:12;54.35;;;31.60;;
70253;SDS011;57649;42.968;1.608;2023-12-04T04:28:15;11.70;;;6.50;;
70253;SDS011;57649;42.968;1.608;2023-12-04T04:30:41;12.85;;;7.28;;
70253;SDS011;57649;42.968;1.608;2023-12-04T04:33:07;12.45;;;7.80;;
70253;SDS011;57649;42.968;1.608;2023-12-04T04:35:39;13.02;;;8.15;;
70253;SDS011;57649;42.968;1.608;2023-12-04T04:38:05;11.35;;;7.03;;
70253;SDS011;57649;42.968;1.608;2023-12-04T04:40:31;15.30;;;8.95;;
70253;SDS011;57649;42.968;1.608;2023-12-04T04:42:56;12.60;;;8.35;;
70253;SDS011;57649;42.968;1.608;2023-12-04T04:45:21;15.27;;;7.43;;
70253;SDS011;57649;42.968;1.608;2023-12-04T04:47:47;13.07;;;7.50;;
70253;SDS011;57649;42.968;1.608;2023-12-04T04:50:12;13.43;;;7.05;;
70253;SDS011;57649;42.968;1.608;2023-12-04T04:52:37;10.57;;;6.57;;
70253;SDS011;57649;42.968;1.608;2023-12-04T04:55:04;10.85;;;6.03;;
70253;SDS011;57649;42.968;1.608;2023-12-04T04:57:36;13.57;;;7.03;;
70253;SDS011;57649;42.968;1.608;2023-12-04T05:00:04;11.00;;;6.30;;
70253;SDS011;57649;42.968;1.608;2023-12-04T05:02:39;10.20;;;6.22;;
70253;SDS011;57649;42.968;1.608;2023-12-04T05:05:07;12.02;;;8.18;;
70253;SDS011;57649;42.968;1.608;2023-12-04T05:07:35;11.05;;;6.15;;
70253;SDS011;57649;42.968;1.608;2023-12-04T05:10:06;10.15;;;5.40;;
70253;SDS011;57649;42.968;1.608;2023-12-04T05:12:40;11.27;;;5.65;;
70253;SDS011;57649;42.968;1.608;2023-12-04T05:15:24;12.18;;;6.40;;
70253;SDS011;57649;42.968;1.608;2023-12-04T05:17:52;14.10;;;7.20;;
70253;SDS011;57649;42.968;1.608;2023-12-04T05:24:04;10.77;;;6.28;;
70253;SDS011;57649;42.968;1.608;2023-12-04T05:26:35;10.20;;;6.28;;
70253;SDS011;57649;42.968;1.608;2023-12-04T05:29:01;8.77;;;5.50;;
70253;SDS011;57649;42.968;1.608;2023-12-04T05:31:26;9.02;;;6.03;;
70253;SDS011;57649;42.968;1.608;2023-12-04T05:33:52;9.20;;;6.15;;
70253;SDS011;57649;42.968;1.608;2023-12-04T05:36:17;8.38;;;5.82;;
70253;SDS011;57649;42.968;1.608;2023-12-04T05:38:43;11.57;;;6.63;;
70253;SDS011;57649;42.968;1.608;2023-12-04T05:41:08;11.60;;;6.47;;
70253;SDS011;57649;42.968;1.608;2023-12-04T05:43:33;9.55;;;6.15;;
70253;SDS011;57649;42.968;1.608;2023-12-04T05:45:59;12.20;;;6.07;;
70253;SDS011;57649;42.968;1.608;2023-12-04T05:48:30;10.70;;;7.00;;
70253;SDS011;57649;42.968;1.608;2023-12-04T05:51:01;12.10;;;6.93;;
70253;SDS011;57649;42.968;1.608;2023-12-04T05:53:29;11.80;;;7.05;;
70253;SDS011;57649;42.968;1.608;2023-12-04T05:56:00;11.15;;;6.78;;
70253;SDS011;57649;42.968;1.608;2023-12-04T05:58:34;11.50;;;7.03;;
70253;SDS011;57649;42.968;1.608;2023-12-04T06:01:00;12.75;;;6.47;;
70253;SDS011;57649;42.968;1.608;2023-12-04T06:03:25;12.68;;;6.32;;
70253;SDS011;57649;42.968;1.608;2023-12-04T06:05:51;12.93;;;6.90;;
70253;SDS011;57649;42.968;1.608;2023-12-04T06:08:16;10.30;;;6.55;;
70253;SDS011;57649;42.968;1.608;2023-12-04T06:10:41;9.88;;;6.20;;
70253;SDS011;57649;42.968;1.608;2023-12-04T06:13:07;12.73;;;6.70;;
70253;SDS011;57649;42.968;1.608;2023-12-04T06:15:32;11.65;;;6.20;;
70253;SDS011;57649;42.968;1.608;2023-12-04T06:17:58;9.98;;;6.60;;
70253;SDS011;57649;42.968;1.608;2023-12-04T06:20:23;13.27;;;6.45;;
70253;SDS011;57649;42.968;1.608;2023-12-04T06:22:49;11.40;;;5.88;;
70253;SDS011;57649;42.968;1.608;2023-12-04T06:25:14;12.77;;;7.07;;
70253;SDS011;57649;42.968;1.608;2023-12-04T06:27:41;10.32;;;6.07;;
70253;SDS011;57649;42.968;1.608;2023-12-04T06:30:06;15.50;;;10.40;;
70253;SDS011;57649;42.968;1.608;2023-12-04T06:32:35;14.05;;;8.40;;
70253;SDS011;57649;42.968;1.608;2023-12-04T06:35:04;13.90;;;7.10;;
70253;SDS011;57649;42.968;1.608;2023-12-04T06:37:30;11.45;;;7.13;;
70253;SDS011;57649;42.968;1.608;2023-12-04T06:39:56;11.30;;;7.15;;
70253;SDS011;57649;42.968;1.608;2023-12-04T06:42:24;10.63;;;7.53;;
70253;SDS011;57649;42.968;1.608;2023-12-04T06:44:50;11.40;;;7.32;;
70253;SDS011;57649;42.968;1.608;2023-12-04T06:47:17;13.40;;;7.95;;
70253;SDS011;57649;42.968;1.608;2023-12-04T06:49:47;13.48;;;7.85;;
70253;SDS011;57649;42.968;1.608;2023-12-04T06:52:12;13.93;;;7.20;;
70253;SDS011;57649;42.968;1.608;2023-12-04T06:54:41;10.10;;;6.20;;
70253;SDS011;57649;42.968;1.608;2023-12-04T06:57:06;12.00;;;6.85;;
70253;SDS011;57649;42.968;1.608;2023-12-04T06:59:31;10.90;;;6.60;;
70253;SDS011;57649;42.968;1.608;2023-12-04T07:01:57;12.65;;;6.78;;
70253;SDS011;57649;42.968;1.608;2023-12-04T07:04:22;10.75;;;6.32;;
70253;SDS011;57649;42.968;1.608;2023-12-04T07:06:47;10.65;;;5.97;;
70253;SDS011;57649;42.968;1.608;2023-12-04T07:09:13;10.15;;;6.35;;
70253;SDS011;57649;42.968;1.608;2023-12-04T07:11:39;10.57;;;6.00;;
70253;SDS011;57649;42.968;1.608;2023-12-04T07:14:05;11.80;;;6.00;;
70253;SDS011;57649;42.968;1.608;2023-12-04T07:16:40;9.70;;;5.68;;
70253;SDS011;57649;42.968;1.608;2023-12-04T07:19:07;9.95;;;5.93;;
70253;SDS011;57649;42.968;1.608;2023-12-04T07:21:36;11.90;;;7.05;;
70253;SDS011;57649;42.968;1.608;2023-12-04T07:24:05;12.15;;;6.20;;
70253;SDS011;57649;42.968;1.608;2023-12-04T07:26:31;9.90;;;6.88;;
70253;SDS011;57649;42.968;1.608;2023-12-04T07:28:58;10.10;;;6.00;;
70253;SDS011;57649;42.968;1.608;2023-12-04T07:31:23;11.35;;;6.47;;
70253;SDS011;57649;42.968;1.608;2023-12-04T07:33:49;16.38;;;9.02;;
70253;SDS011;57649;42.968;1.608;2023-12-04T07:36:14;14.65;;;6.43;;
70253;SDS011;57649;42.968;1.608;2023-12-04T07:38:39;11.60;;;7.28;;
70253;SDS011;57649;42.968;1.608;2023-12-04T07:41:05;10.88;;;7.28;;
70253;SDS011;57649;42.968;1.608;2023-12-04T07:43:30;14.25;;;8.82;;
70253;SDS011;57649;42.968;1.608;2023-12-04T07:45:56;10.30;;;6.63;;
70253;SDS011;57649;42.968;1.608;2023-12-04T07:48:22;16.17;;;6.65;;
70253;SDS011;57649;42.968;1.608;2023-12-04T07:50:53;9.95;;;6.60;;
70253;SDS011;57649;42.968;1.608;2023-12-04T07:53:19;13.80;;;8.18;;
70253;SDS011;57649;42.968;1.608;2023-12-04T07:55:44;12.52;;;7.32;;
70253;SDS011;57649;42.968;1.608;2023-12-04T07:58:11;10.35;;;6.40;;
70253;SDS011;57649;42.968;1.608;2023-12-04T08:00:39;9.90;;;6.20;;
70253;SDS011;57649;42.968;1.608;2023-12-04T08:03:05;10.48;;;6.40;;
70253;SDS011;57649;42.968;1.608;2023-12-04T08:05:31;10.15;;;6.70;;
70253;SDS011;57649;42.968;1.608;2023-12-04T08:07:57;10.98;;;7.13;;
70253;SDS011;57649;42.968;1.608;2023-12-04T08:10:22;10.88;;;6.03;;
70253;SDS011;57649;42.968;1.608;2023-12-04T08:12:48;8.32;;;5.55;;
70253;SDS011;57649;42.968;1.608;2023-12-04T08:15:13;10.90;;;5.93;;
70253;SDS011;57649;42.968;1.608;2023-12-04T08:17:39;11.80;;;5.60;;
70253;SDS011;57649;42.968;1.608;2023-12-04T08:20:04;9.05;;;5.80;;
70253;SDS011;57649;42.968;1.608;2023-12-04T08:22:31;10.57;;;6.05;;
70253;SDS011;57649;42.968;1.608;2023-12-04T08:24:56;14.90;;;6.95;;
70253;SDS011;57649;42.968;1.608;2023-12-04T08:27:23;10.60;;;6.38;;
70253;SDS011;57649;42.968;1.608;2023-12-04T08:29:49;12.90;;;7.03;;
70253;SDS011;57649;42.968;1.608;2023-12-04T08:32:15;14.48;;;7.55;;
70253;SDS011;57649;42.968;1.608;2023-12-04T08:34:40;10.70;;;6.70;;
70253;SDS011;57649;42.968;1.608;2023-12-04T08:37:06;14.65;;;9.13;;
70253;SDS011;57649;42.968;1.608;2023-12-04T08:39:31;11.60;;;6.88;;
70253;SDS011;57649;42.968;1.608;2023-12-04T08:41:57;10.38;;;6.63;;
70253;SDS011;57649;42.968;1.608;2023-12-04T08:44:22;12.07;;;7.47;;
70253;SDS011;57649;42.968;1.608;2023-12-04T08:46:48;13.60;;;8.13;;
70253;SDS011;57649;42.968;1.608;2023-12-04T08:49:14;15.95;;;7.15;;
70253;SDS011;57649;42.968;1.608;2023-12-04T08:51:39;10.50;;;7.15;;
70253;SDS011;57649;42.968;1.608;2023-12-04T08:54:04;12.68;;;7.93;;
70253;SDS011;57649;42.968;1.608;2023-12-04T08:56:30;12.95;;;8.63;;
70253;SDS011;57649;42.968;1.608;2023-12-04T08:58:55;16.40;;;10.43;;
70253;SDS011;57649;42.968;1.608;2023-12-04T09:01:22;15.05;;;8.80;;
70253;SDS011;57649;42.968;1.608;2023-12-04T09:03:48;8.90;;;5.30;;
70253;SDS011;57649;42.968;1.608;2023-12-04T09:06:13;14.02;;;9.45;;
70253;SDS011;57649;42.968;1.608;2023-12-04T09:08:40;9.80;;;5.63;;
70253;SDS011;57649;42.968;1.608;2023-12-04T09:11:06;8.82;;;5.05;;
70253;SDS011;57649;42.968;1.608;2023-12-04T09:13:31;9.75;;;5.55;;
70253;SDS011;57649;42.968;1.608;2023-12-04T09:15:58;8.32;;;5.65;;
70253;SDS011;57649;42.968;1.608;2023-12-04T09:18:24;9.95;;;6.03;;
70253;SDS011;57649;42.968;1.608;2023-12-04T09:20:49;7.82;;;4.68;;
70253;SDS011;57649;42.968;1.608;2023-12-04T09:23:15;10.05;;;5.20;;
70253;SDS011;57649;42.968;1.608;2023-12-04T09:25:40;10.02;;;5.15;;
70253;SDS011;57649;42.968;1.608;2023-12-04T09:28:06;9.90;;;7.68;;
70253;SDS011;57649;42.968;1.608;2023-12-04T09:30:33;9.93;;;6.65;;
70253;SDS011;57649;42.968;1.608;2023-12-04T09:32:59;8.15;;;6.00;;
70253;SDS011;57649;42.968;1.608;2023-12-04T09:35:24;7.15;;;5.28;;
70253;SDS011;57649;42.968;1.608;2023-12-04T09:37:50;25.83;;;15.35;;
70253;SDS011;57649;42.968;1.608;2023-12-04T09:40:16;9.55;;;6.78;;
70253;SDS011;57649;42.968;1.608;2023-12-04T09:42:41;7.20;;;4.72;;
70253;SDS011;57649;42.968;1.608;2023-12-04T09:45:07;7.15;;;4.93;;
70253;SDS011;57649;42.968;1.608;2023-12-04T09:47:34;11.55;;;5.72;;
70253;SDS011;57649;42.968;1.608;2023-12-04T09:49:59;11.50;;;5.13;;
70253;SDS011;57649;42.968;1.608;2023-12-04T09:52:25;8.50;;;5.10;;
70253;SDS011;57649;42.968;1.608;2023-12-04T09:54:52;8.82;;;5.30;;
70253;SDS011;57649;42.968;1.608;2023-12-04T09:57:18;8.57;;;5.75;;
70253;SDS011;57649;42.968;1.608;2023-12-04T09:59:46;7.65;;;4.25;;
70253;SDS011;57649;42.968;1.608;2023-12-04T10:02:18;7.65;;;4.53;;
70253;SDS011;57649;42.968;1.608;2023-12-04T10:04:47;8.73;;;5.25;;
70253;SDS011;57649;42.968;1.608;2023-12-04T10:09:44;7.20;;;4.28;;
70253;SDS011;57649;42.968;1.608;2023-12-04T10:12:13;8.25;;;4.32;;
70253;SDS011;57649;42.968;1.608;2023-12-04T10:14:38;6.63;;;4.30;;
70253;SDS011;57649;42.968;1.608;2023-12-04T10:17:16;7.55;;;5.20;;
70253;SDS011;57649;42.968;1.608;2023-12-04T10:19:42;10.90;;;6.23;;
70253;SDS011;57649;42.968;1.608;2023-12-04T10:22:08;6.88;;;4.50;;
70253;SDS011;57649;42.968;1.608;2023-12-04T10:24:38;7.75;;;5.18;;
70253;SDS011;57649;42.968;1.608;2023-12-04T10:27:04;7.95;;;4.80;;
70253;SDS011;57649;42.968;1.608;2023-12-04T10:29:51;6.10;;;4.10;;
70253;SDS011;57649;42.968;1.608;2023-12-04T10:32:23;9.25;;;5.57;;
70253;SDS011;57649;42.968;1.608;2023-12-04T10:34:48;8.93;;;5.35;;
70253;SDS011;57649;42.968;1.608;2023-12-04T10:37:17;9.73;;;5.32;;
70253;SDS011;57649;42.968;1.608;2023-12-04T10:40:03;7.70;;;4.97;;
70253;SDS011;57649;42.968;1.608;2023-12-04T10:42:33;5.47;;;3.60;;
70253;SDS011;57649;42.968;1.608;2023-12-04T10:45:05;8.43;;;4.40;;
70253;SDS011;57649;42.968;1.608;2023-12-04T10:47:31;6.97;;;3.97;;
70253;SDS011;57649;42.968;1.608;2023-12-04T10:50:01;7.97;;;4.25;;
70253;SDS011;57649;42.968;1.608;2023-12-04T10:52:35;8.55;;;3.70;;
70253;SDS011;57649;42.968;1.608;2023-12-04T10:55:08;7.38;;;4.60;;
70253;SDS011;57649;42.968;1.608;2023-12-04T10:57:37;9.80;;;4.45;;
70253;SDS011;57649;42.968;1.608;2023-12-04T11:00:05;8.10;;;3.38;;
70253;SDS011;57649;42.968;1.608;2023-12-04T11:02:33;6.93;;;4.10;;
70253;SDS011;57649;42.968;1.608;2023-12-04T11:05:07;8.63;;;4.47;;
70253;SDS011;57649;42.968;1.608;2023-12-04T11:07:40;7.78;;;4.10;;
70253;SDS011;57649;42.968;1.608;2023-12-04T11:10:08;6.60;;;4.13;;
70253;SDS011;57649;42.968;1.608;2023-12-04T11:12:39;5.75;;;3.45;;
70253;SDS011;57649;42.968;1.608;2023-12-04T11:15:19;8.30;;;4.00;;
70253;SDS011;57649;42.968;1.608;2023-12-04T11:17:53;8.80;;;4.53;;
70253;SDS011;57649;42.968;1.608;2023-12-04T11:20:27;8.48;;;3.05;;
70253;SDS011;57649;42.968;1.608;2023-12-04T11:22:57;6.32;;;3.40;;
70253;SDS011;57649;42.968;1.608;2023-12-04T11:25:23;5.13;;;3.33;;
70253;SDS011;57649;42.968;1.608;2023-12-04T11:27:51;4.43;;;3.13;;
70253;SDS011;57649;42.968;1.608;2023-12-04T11:30:19;8.98;;;3.60;;
70253;SDS011;57649;42.968;1.608;2023-12-04T11:32:46;5.68;;;3.72;;
70253;SDS011;57649;42.968;1.608;2023-12-04T11:35:14;5.72;;;3.58;;
70253;SDS011;57649;42.968;1.608;2023-12-04T11:37:42;5.22;;;3.50;;
70253;SDS011;57649;42.968;1.608;2023-12-04T11:40:12;6.03;;;3.80;;
70253;SDS011;57649;42.968;1.608;2023-12-04T11:42:40;12.60;;;8.27;;
70253;SDS011;57649;42.968;1.608;2023-12-04T11:45:09;6.85;;;2.55;;
70253;SDS011;57649;42.968;1.608;2023-12-04T11:47:49;6.72;;;3.65;;
70253;SDS011;57649;42.968;1.608;2023-12-04T11:50:21;4.00;;;2.80;;
70253;SDS011;57649;42.968;1.608;2023-12-04T11:52:55;4.78;;;2.90;;
70253;SDS011;57649;42.968;1.608;2023-12-04T11:55:21;4.57;;;3.10;;
70253;SDS011;57649;42.968;1.608;2023-12-04T11:57:49;4.15;;;2.72;;
70253;SDS011;57649;42.968;1.608;2023-12-04T12:05:23;3.75;;;2.78;;
70253;SDS011;57649;42.968;1.608;2023-12-04T12:07:50;5.00;;;3.00;;
70253;SDS011;57649;42.968;1.608;2023-12-04T12:10:15;4.78;;;2.85;;
70253;SDS011;57649;42.968;1.608;2023-12-04T12:12:44;5.47;;;3.30;;
70253;SDS011;57649;42.968;1.608;2023-12-04T12:15:10;4.68;;;3.30;;
70253;SDS011;57649;42.968;1.608;2023-12-04T12:17:40;8.00;;;3.80;;
70253;SDS011;57649;42.968;1.608;2023-12-04T12:20:10;8.15;;;4.07;;
70253;SDS011;57649;42.968;1.608;2023-12-04T12:22:37;6.72;;;3.28;;
70253;SDS011;57649;42.968;1.608;2023-12-04T12:25:09;7.13;;;3.38;;
70253;SDS011;57649;42.968;1.608;2023-12-04T12:27:35;5.63;;;3.03;;
70253;SDS011;57649;42.968;1.608;2023-12-04T12:30:01;8.05;;;3.65;;
70253;SDS011;57649;42.968;1.608;2023-12-04T12:32:28;4.57;;;2.95;;
70253;SDS011;57649;42.968;1.608;2023-12-04T12:34:54;6.68;;;3.08;;
70253;SDS011;57649;42.968;1.608;2023-12-04T12:37:20;5.28;;;3.00;;
70253;SDS011;57649;42.968;1.608;2023-12-04T12:39:46;6.80;;;3.42;;
70253;SDS011;57649;42.968;1.608;2023-12-04T12:42:11;3.17;;;2.20;;
70253;SDS011;57649;42.968;1.608;2023-12-04T12:44:40;5.13;;;2.67;;
70253;SDS011;57649;42.968;1.608;2023-12-04T12:47:06;6.70;;;3.80;;
70253;SDS011;57649;42.968;1.608;2023-12-04T12:49:32;5.75;;;3.65;;
70253;SDS011;57649;42.968;1.608;2023-12-04T12:52:06;9.73;;;3.22;;
70253;SDS011;57649;42.968;1.608;2023-12-04T12:54:38;6.93;;;3.53;;
70253;SDS011;57649;42.968;1.608;2023-12-04T12:57:05;14.00;;;7.18;;
70253;SDS011;57649;42.968;1.608;2023-12-04T12:59:32;15.40;;;7.38;;
70253;SDS011;57649;42.968;1.608;2023-12-04T13:01:57;12.13;;;6.25;;
70253;SDS011;57649;42.968;1.608;2023-12-04T13:04:25;13.40;;;6.05;;
70253;SDS011;57649;42.968;1.608;2023-12-04T13:06:50;12.93;;;5.50;;
70253;SDS011;57649;42.968;1.608;2023-12-04T13:09:16;14.10;;;6.78;;
70253;SDS011;57649;42.968;1.608;2023-12-04T13:11:46;18.63;;;7.13;;
70253;SDS011;57649;42.968;1.608;2023-12-04T13:14:12;13.38;;;5.72;;
70253;SDS011;57649;42.968;1.608;2023-12-04T13:16:41;12.88;;;7.35;;
70253;SDS011;57649;42.968;1.608;2023-12-04T13:19:06;14.15;;;5.50;;
70253;SDS011;57649;42.968;1.608;2023-12-04T13:21:31;10.45;;;5.43;;
70253;SDS011;57649;42.968;1.608;2023-12-04T13:23:57;10.52;;;4.78;;
70253;SDS011;57649;42.968;1.608;2023-12-04T13:26:25;9.35;;;4.68;;
70253;SDS011;57649;42.968;1.608;2023-12-04T13:28:55;9.95;;;5.20;;
70253;SDS011;57649;42.968;1.608;2023-12-04T13:31:21;9.40;;;5.40;;
70253;SDS011;57649;42.968;1.608;2023-12-04T13:33:46;8.80;;;4.53;;
70253;SDS011;57649;42.968;1.608;2023-12-04T13:36:12;10.63;;;4.80;;
70253;SDS011;57649;42.968;1.608;2023-12-04T13:38:37;9.63;;;6.45;;
70253;SDS011;57649;42.968;1.608;2023-12-04T13:41:03;11.45;;;6.63;;
70253;SDS011;57649;42.968;1.608;2023-12-04T13:44:03;9.80;;;5.80;;
70253;SDS011;57649;42.968;1.608;2023-12-04T13:46:29;55.78;;;10.68;;
70253;SDS011;57649;42.968;1.608;2023-12-04T13:48:55;40.28;;;8.00;;
70253;SDS011;57649;42.968;1.608;2023-12-04T13:51:21;30.10;;;7.55;;
70253;SDS011;57649;42.968;1.608;2023-12-04T13:53:47;11.25;;;5.72;;
70253;SDS011;57649;42.968;1.608;2023-12-04T13:56:15;7.32;;;4.88;;
70253;SDS011;57649;42.968;1.608;2023-12-04T13:58:41;7.30;;;4.70;;
70253;SDS011;57649;42.968;1.608;2023-12-04T14:01:10;9.52;;;4.68;;
70253;SDS011;57649;42.968;1.608;2023-12-04T14:03:42;6.15;;;4.32;;
70253;SDS011;57649;42.968;1.608;2023-12-04T14:06:08;6.85;;;5.07;;
70253;SDS011;57649;42.968;1.608;2023-12-04T14:08:34;6.43;;;3.67;;
70253;SDS011;57649;42.968;1.608;2023-12-04T14:11:01;4.53;;;3.05;;
70253;SDS011;57649;42.968;1.608;2023-12-04T14:13:31;6.40;;;4.10;;
70253;SDS011;57649;42.968;1.608;2023-12-04T14:15:57;5.57;;;3.60;;
70253;SDS011;57649;42.968;1.608;2023-12-04T14:18:23;7.50;;;4.45;;
70253;SDS011;57649;42.968;1.608;2023-12-04T14:20:49;6.72;;;3.85;;
70253;SDS011;57649;42.968;1.608;2023-12-04T14:23:14;7.00;;;3.92;;
70253;SDS011;57649;42.968;1.608;2023-12-04T14:25:40;7.05;;;3.78;;
70253;SDS011;57649;42.968;1.608;2023-12-04T14:28:11;8.07;;;5.20;;
70253;SDS011;57649;42.968;1.608;2023-12-04T14:30:57;6.55;;;2.95;;
70253;SDS011;57649;42.968;1.608;2023-12-04T14:33:23;8.00;;;3.17;;
70253;SDS011;57649;42.968;1.608;2023-12-04T14:35:49;6.90;;;3.70;;
70253;SDS011;57649;42.968;1.608;2023-12-04T14:38:15;5.30;;;3.53;;
70253;SDS011;57649;42.968;1.608;2023-12-04T14:40:41;7.93;;;3.72;;
70253;SDS011;57649;42.968;1.608;2023-12-04T14:43:06;8.60;;;4.80;;
70253;SDS011;57649;42.968;1.608;2023-12-04T14:45:35;8.75;;;4.50;;
70253;SDS011;57649;42.968;1.608;2023-12-04T14:48:01;6.30;;;4.63;;
70253;SDS011;57649;42.968;1.608;2023-12-04T14:50:27;6.28;;;4.32;;
70253;SDS011;57649;42.968;1.608;2023-12-04T14:52:52;7.15;;;4.10;;
70253;SDS011;57649;42.968;1.608;2023-12-04T14:55:20;8.90;;;5.13;;
70253;SDS011;57649;42.968;1.608;2023-12-04T14:57:51;7.63;;;4.65;;
70253;SDS011;57649;42.968;1.608;2023-12-04T15:00:52;7.00;;;4.30;;
70253;SDS011;57649;42.968;1.608;2023-12-04T15:03:36;11.13;;;4.95;;
70253;SDS011;57649;42.968;1.608;2023-12-04T15:06:01;11.82;;;7.75;;
70253;SDS011;57649;42.968;1.608;2023-12-04T15:08:38;9.05;;;5.05;;
70253;SDS011;57649;42.968;1.608;2023-12-04T15:11:23;10.93;;;4.30;;
70253;SDS011;57649;42.968;1.608;2023-12-04T15:14:11;10.95;;;5.07;;
70253;SDS011;57649;42.968;1.608;2023-12-04T15:17:00;6.65;;;4.43;;
70253;SDS011;57649;42.968;1.608;2023-12-04T15:19:42;7.30;;;4.85;;
70253;SDS011;57649;42.968;1.608;2023-12-04T15:22:26;11.85;;;4.18;;
70253;SDS011;57649;42.968;1.608;2023-12-04T15:24:51;4.30;;;2.70;;
70253;SDS011;57649;42.968;1.608;2023-12-04T15:27:17;8.07;;;5.03;;
70253;SDS011;57649;42.968;1.608;2023-12-04T15:29:43;5.70;;;2.38;;